createdAt,value
2023-03-06T00:00:34.501Z,3.38
2023-03-06T00:03:03.841Z,3.34
2023-03-06T00:05:30.414Z,3.36
2023-03-06T00:07:57.075Z,3.32
2023-03-06T00:10:28.254Z,3.29
2023-03-06T00:12:56.362Z,3.25
2023-03-06T00:15:23.216Z,3.25
2023-03-06T00:17:49.609Z,3.23
2023-03-06T00:20:16.471Z,3.24
2023-03-06T00:22:42.900Z,3.25
2023-03-06T00:25:15.996Z,3.25
2023-03-06T00:27:42.608Z,3.25
2023-03-06T00:30:12.082Z,3.26
2023-03-06T00:32:38.496Z,3.25
2023-03-06T00:35:05.304Z,3.24
2023-03-06T00:37:31.845Z,3.22
2023-03-06T00:39:58.324Z,3.19
2023-03-06T00:42:24.694Z,3.16
2023-03-06T00:44:51.111Z,3.15
2023-03-06T00:47:17.456Z,3.16
2023-03-06T00:49:44.722Z,3.17
2023-03-06T00:52:11.655Z,3.15
2023-03-06T00:54:38.051Z,3.15
2023-03-06T00:57:04.558Z,3.20
2023-03-06T00:59:31.035Z,3.18
2023-03-06T01:01:57.435Z,3.19
2023-03-06T01:04:23.816Z,3.18
2023-03-06T01:06:50.372Z,3.20
2023-03-06T01:09:16.813Z,3.21
2023-03-06T01:11:43.236Z,3.17
2023-03-06T01:14:09.869Z,3.20
2023-03-06T01:16:36.255Z,3.20
2023-03-06T01:19:02.821Z,3.22
2023-03-06T01:21:29.424Z,3.22
2023-03-06T01:23:55.812Z,3.21
2023-03-06T01:26:22.166Z,3.22
2023-03-06T01:28:48.735Z,3.20
2023-03-06T01:31:15.179Z,3.21
2023-03-06T01:33:41.576Z,3.24
2023-03-06T01:36:09.285Z,3.20
2023-03-06T01:38:35.659Z,3.17
2023-03-06T01:41:03.469Z,3.19
2023-03-06T01:43:37.516Z,3.19
2023-03-06T01:46:22.661Z,3.18
2023-03-06T01:48:49.967Z,3.18
2023-03-06T01:51:16.372Z,3.17
2023-03-06T01:53:43.563Z,3.15
2023-03-06T01:56:10.899Z,3.10
2023-03-06T01:58:38.000Z,3.14
2023-03-06T02:01:04.463Z,3.14
2023-03-06T02:03:30.869Z,3.12
2023-03-06T02:05:57.238Z,3.14
2023-03-06T02:08:23.765Z,3.11
2023-03-06T02:10:58.093Z,3.11
2023-03-06T02:13:24.532Z,3.14
2023-03-06T02:15:50.876Z,3.14
2023-03-06T02:18:17.462Z,3.14
2023-03-06T02:21:05.087Z,3.15
2023-03-06T02:23:32.578Z,3.14
2023-03-06T02:25:59.033Z,3.12
2023-03-06T02:28:25.515Z,3.14
2023-03-06T02:30:53.072Z,3.13
2023-03-06T02:33:21.556Z,3.10
2023-03-06T02:36:01.656Z,3.12
2023-03-06T02:38:33.734Z,3.11
2023-03-06T02:41:00.144Z,3.13
2023-03-06T02:43:28.946Z,3.08
2023-03-06T02:45:55.355Z,3.11
2023-03-06T02:48:21.744Z,3.12
2023-03-06T02:50:48.241Z,3.08
2023-03-06T02:53:15.757Z,3.10
2023-03-06T02:55:42.117Z,3.13
2023-03-06T02:58:08.624Z,3.11
2023-03-06T03:00:35.033Z,3.09
2023-03-06T03:03:01.502Z,3.10
2023-03-06T03:05:28.095Z,3.04
2023-03-06T03:07:54.473Z,3.04
2023-03-06T03:10:20.817Z,3.06
2023-03-06T03:12:47.183Z,3.07
2023-03-06T03:15:13.721Z,3.09
2023-03-06T03:17:40.418Z,3.07
2023-03-06T03:20:09.235Z,3.02
2023-03-06T03:22:35.614Z,3.02
2023-03-06T03:25:02.045Z,3.03
2023-03-06T03:27:28.608Z,3.03
2023-03-06T03:29:57.422Z,3.03
2023-03-06T03:32:24.155Z,3.02
2023-03-06T03:34:50.778Z,2.97
2023-03-06T03:37:17.424Z,2.99
2023-03-06T03:39:43.769Z,3.02
2023-03-06T03:42:10.609Z,2.98
2023-03-06T03:44:37.011Z,2.96
2023-03-06T03:47:03.506Z,2.94
2023-03-06T03:49:30.131Z,2.92
2023-03-06T03:51:56.543Z,2.91
2023-03-06T03:54:23.206Z,2.90
2023-03-06T03:56:49.590Z,2.93
2023-03-06T03:59:15.930Z,2.84
2023-03-06T04:01:42.318Z,2.88
2023-03-06T04:04:08.878Z,2.91
2023-03-06T04:06:35.244Z,2.90
2023-03-06T04:09:01.595Z,2.88
2023-03-06T04:11:28.212Z,2.89
2023-03-06T04:13:54.575Z,2.84
2023-03-06T04:16:20.965Z,2.90
2023-03-06T04:18:47.554Z,2.89
2023-03-06T04:21:13.958Z,2.90
2023-03-06T04:23:40.314Z,2.89
2023-03-06T04:26:06.959Z,2.90
2023-03-06T04:28:33.413Z,2.91
2023-03-06T04:30:59.796Z,2.91
2023-03-06T04:33:26.239Z,2.94
2023-03-06T04:35:52.613Z,2.93
2023-03-06T04:38:18.973Z,2.93
2023-03-06T04:40:45.576Z,2.93
2023-03-06T04:43:12.249Z,2.92
2023-03-06T04:45:38.674Z,2.91
2023-03-06T04:48:05.355Z,2.93
2023-03-06T04:50:32.602Z,2.90
2023-03-06T04:53:00.875Z,2.92
2023-03-06T04:55:27.686Z,2.95
2023-03-06T04:57:54.060Z,2.98
2023-03-06T05:00:22.868Z,2.99
2023-03-06T05:02:49.789Z,2.93
2023-03-06T05:05:16.287Z,2.91
2023-03-06T05:07:42.701Z,2.87
2023-03-06T05:10:12.020Z,2.84
2023-03-06T05:12:39.274Z,2.86
2023-03-06T05:15:06.246Z,2.87
2023-03-06T05:17:32.831Z,2.84
2023-03-06T05:19:59.276Z,2.86
2023-03-06T05:22:25.788Z,2.86
2023-03-06T05:24:52.570Z,2.87
2023-03-06T05:27:18.945Z,2.86
2023-03-06T05:29:45.477Z,2.83
2023-03-06T05:32:12.180Z,2.81
2023-03-06T05:34:39.587Z,2.71
2023-03-06T05:37:06.118Z,2.70
2023-03-06T05:39:32.535Z,2.73
2023-03-06T05:41:58.920Z,2.75
2023-03-06T05:44:29.861Z,2.67
2023-03-06T05:46:56.258Z,2.69
2023-03-06T05:49:22.642Z,2.70
2023-03-06T05:51:48.997Z,2.74
2023-03-06T05:54:15.422Z,2.75
2023-03-06T05:56:42.901Z,2.67
2023-03-06T05:59:09.477Z,2.63
2023-03-06T06:01:36.017Z,2.68
2023-03-06T06:04:02.365Z,2.73
2023-03-06T06:06:28.719Z,2.78
2023-03-06T06:08:55.240Z,2.79
2023-03-06T06:11:21.579Z,2.82
2023-03-06T06:13:48.473Z,2.81
2023-03-06T06:16:19.423Z,2.81
2023-03-06T06:18:45.821Z,2.77
2023-03-06T06:21:12.691Z,2.80
2023-03-06T06:23:39.226Z,2.77
2023-03-06T06:26:06.319Z,2.74
2023-03-06T06:28:33.399Z,2.76
2023-03-06T06:31:00.132Z,2.79
2023-03-06T06:33:26.657Z,2.75
2023-03-06T06:35:53.254Z,2.80
2023-03-06T06:38:19.943Z,2.82
2023-03-06T06:41:04.258Z,2.80
2023-03-06T06:43:32.896Z,2.79
2023-03-06T06:46:19.573Z,2.82
2023-03-06T06:48:48.369Z,2.79
2023-03-06T06:51:14.868Z,2.66
2023-03-06T06:53:41.209Z,2.61
2023-03-06T06:56:07.787Z,2.51
2023-03-06T06:58:34.175Z,2.44
2023-03-06T07:01:07.881Z,2.38
2023-03-06T07:03:34.559Z,2.33
2023-03-06T07:06:01.008Z,2.33
2023-03-06T07:08:27.399Z,2.28
2023-03-06T07:10:54.053Z,2.18
2023-03-06T07:13:20.502Z,2.23
2023-03-06T07:15:46.931Z,2.18
2023-03-06T07:18:13.554Z,2.19
2023-03-06T07:20:39.961Z,2.21
2023-03-06T07:23:08.177Z,2.25
2023-03-06T07:25:34.711Z,2.28
2023-03-06T07:28:01.168Z,2.25
2023-03-06T07:30:27.794Z,2.23
2023-03-06T07:32:57.737Z,2.25
2023-03-06T07:35:24.531Z,2.19
2023-03-06T07:37:51.460Z,2.16
2023-03-06T07:40:19.576Z,2.16
2023-03-06T07:42:46.263Z,2.17
2023-03-06T07:45:13.874Z,2.11
2023-03-06T07:47:40.634Z,2.08
2023-03-06T07:50:07.717Z,2.09
2023-03-06T07:52:34.393Z,2.05
2023-03-06T07:55:00.804Z,2.05
2023-03-06T07:57:27.152Z,2.04
2023-03-06T07:59:53.655Z,2.09
2023-03-06T08:02:20.252Z,2.12
2023-03-06T08:04:52.560Z,2.09
2023-03-06T08:07:18.982Z,2.12
2023-03-06T08:09:45.679Z,2.10
2023-03-06T08:12:12.103Z,2.06
2023-03-06T08:14:38.528Z,2.04
2023-03-06T08:17:05.319Z,2.06
2023-03-06T08:19:31.739Z,2.09
2023-03-06T08:21:58.130Z,2.10
2023-03-06T08:24:24.746Z,2.04
2023-03-06T08:26:51.153Z,2.05
2023-03-06T08:29:17.572Z,2.09
2023-03-06T08:31:45.531Z,2.17
2023-03-06T08:34:22.150Z,2.18
2023-03-06T08:36:48.713Z,2.16
2023-03-06T08:39:15.106Z,2.06
2023-03-06T08:41:42.166Z,2.08
2023-03-06T08:44:08.798Z,2.12
2023-03-06T08:46:35.286Z,2.14
2023-03-06T08:49:01.769Z,2.19
2023-03-06T08:51:29.156Z,2.19
2023-03-06T08:53:56.172Z,2.17
2023-03-06T08:56:24.822Z,2.15
2023-03-06T08:58:52.104Z,2.17
2023-03-06T09:01:21.110Z,2.17
2023-03-06T09:03:47.669Z,2.14
2023-03-06T09:06:14.371Z,2.13
2023-03-06T09:08:43.081Z,2.13
2023-03-06T09:11:12.864Z,2.14
2023-03-06T09:13:39.390Z,2.18
2023-03-06T09:16:06.162Z,2.25
2023-03-06T09:18:32.528Z,2.25
2023-03-06T09:20:58.941Z,2.33
2023-03-06T09:23:25.387Z,2.32
2023-03-06T09:25:55.656Z,2.38
2023-03-06T09:28:22.239Z,2.42
2023-03-06T09:30:48.659Z,2.46
2023-03-06T09:33:15.285Z,2.44
2023-03-06T09:35:55.164Z,2.41
2023-03-06T09:38:23.436Z,2.37
2023-03-06T09:41:00.041Z,2.39
2023-03-06T09:43:36.859Z,2.40
2023-03-06T09:46:18.425Z,2.33
2023-03-06T09:49:00.886Z,2.25
2023-03-06T09:51:54.114Z,2.18
2023-03-06T09:54:22.561Z,2.20
2023-03-06T09:56:49.605Z,2.19
2023-03-06T09:59:23.804Z,2.10
2023-03-06T10:01:57.357Z,2.08
2023-03-06T10:04:37.481Z,2.00
2023-03-06T10:07:15.742Z,1.97
2023-03-06T10:09:46.276Z,1.99
2023-03-06T10:13:00.965Z,1.98
2023-03-06T10:15:35.997Z,1.89
2023-03-06T10:18:03.632Z,1.87
2023-03-06T10:21:18.665Z,1.86
2023-03-06T10:23:58.549Z,1.88
2023-03-06T10:26:26.710Z,1.90
2023-03-06T10:29:05.333Z,1.94
2023-03-06T10:31:31.980Z,1.89
2023-03-06T10:34:13.554Z,1.90
2023-03-06T10:36:41.210Z,1.76
2023-03-06T10:39:15.689Z,1.78
2023-03-06T10:41:42.762Z,1.75
2023-03-06T10:44:12.626Z,1.78
2023-03-06T10:46:43.741Z,1.76
2023-03-06T10:49:35.526Z,1.73
2023-03-06T10:52:07.310Z,1.65
2023-03-06T10:54:37.972Z,1.68
2023-03-06T10:57:30.993Z,1.65
2023-03-06T11:00:15.257Z,1.65
2023-03-06T11:02:41.788Z,1.60
2023-03-06T11:05:20.598Z,1.54
2023-03-06T11:07:55.016Z,1.55
2023-03-06T11:10:23.224Z,1.52
2023-03-06T11:13:20.492Z,1.49
2023-03-06T11:16:25.497Z,1.54
2023-03-06T11:19:04.138Z,1.59
2023-03-06T11:21:34.902Z,1.63
2023-03-06T11:24:07.156Z,1.62
2023-03-06T11:26:40.566Z,1.65
2023-03-06T11:29:38.486Z,1.72
2023-03-06T11:32:16.654Z,1.77
2023-03-06T11:34:50.260Z,1.81
2023-03-06T11:37:43.229Z,1.83
2023-03-06T11:40:21.017Z,1.89
2023-03-06T11:43:08.157Z,1.90
2023-03-06T11:45:37.444Z,1.89
2023-03-06T11:48:20.839Z,1.90
2023-03-06T11:50:47.396Z,1.97
2023-03-06T11:53:18.923Z,2.04
2023-03-06T11:55:51.406Z,2.03
2023-03-06T11:58:42.699Z,2.10
2023-03-06T12:01:16.834Z,2.19
2023-03-06T12:03:58.321Z,2.21
2023-03-06T12:06:39.839Z,2.38
2023-03-06T12:09:12.613Z,2.44
2023-03-06T12:11:53.940Z,2.48
2023-03-06T12:14:27.987Z,2.66
2023-03-06T12:16:58.617Z,2.78
2023-03-06T12:19:46.422Z,2.86
2023-03-06T12:22:27.105Z,2.72
2023-03-06T12:25:21.507Z,2.66
2023-03-06T12:28:08.124Z,2.65
2023-03-06T12:30:47.549Z,2.67
2023-03-06T12:33:26.091Z,2.60
2023-03-06T12:36:19.896Z,2.77
2023-03-06T12:39:07.435Z,2.89
2023-03-06T12:41:43.863Z,2.97
2023-03-06T12:44:14.364Z,2.98
2023-03-06T12:46:46.668Z,3.01
2023-03-06T12:49:33.407Z,2.94
2023-03-06T12:52:00.000Z,2.92
2023-03-06T12:54:28.555Z,3.02
2023-03-06T12:56:55.571Z,3.09
2023-03-06T12:59:42.693Z,3.23
2023-03-06T13:02:58.292Z,3.41
2023-03-06T13:05:49.512Z,3.51
2023-03-06T13:08:44.330Z,3.45
2023-03-06T13:11:35.492Z,3.66
2023-03-06T13:14:18.818Z,3.94
2023-03-06T13:16:45.202Z,3.90
2023-03-06T13:19:19.341Z,3.80
2023-03-06T13:22:25.407Z,3.73
2023-03-06T13:25:17.057Z,3.76
2023-03-06T13:27:55.655Z,3.73
2023-03-06T13:30:23.857Z,3.77
2023-03-06T13:32:52.722Z,3.93
2023-03-06T13:35:34.549Z,4.12
2023-03-06T13:38:01.106Z,4.03
2023-03-06T13:40:32.215Z,4.16
2023-03-06T13:43:03.708Z,4.28
2023-03-06T13:45:34.034Z,4.18
2023-03-06T13:48:24.934Z,4.14
2023-03-06T13:50:47.639Z,4.29
2023-03-06T13:53:40.522Z,4.32
2023-03-06T13:56:34.744Z,4.17
2023-03-06T13:59:14.453Z,4.45
2023-03-06T14:01:40.912Z,4.36
2023-03-06T14:04:16.197Z,4.69
2023-03-06T14:07:24.558Z,4.72
2023-03-06T14:09:54.408Z,4.81
2023-03-06T14:12:32.465Z,4.64
2023-03-06T14:15:00.505Z,4.75
2023-03-06T14:17:30.141Z,5.01
2023-03-06T14:19:59.690Z,5.25
2023-03-06T14:22:26.121Z,5.45
2023-03-06T14:25:04.717Z,5.55
2023-03-06T14:28:05.684Z,5.90
2023-03-06T14:30:38.816Z,6.14
2023-03-06T14:33:10.977Z,6.02
2023-03-06T14:35:37.359Z,6.03
2023-03-06T14:38:04.840Z,6.12
2023-03-06T14:40:42.039Z,6.32
2023-03-06T14:43:24.658Z,6.66
2023-03-06T14:45:56.151Z,6.51
2023-03-06T14:48:22.933Z,6.45
2023-03-06T14:50:56.080Z,6.46
2023-03-06T14:53:28.081Z,6.73
2023-03-06T14:56:04.928Z,6.48
2023-03-06T14:58:36.376Z,6.10
2023-03-06T15:01:05.288Z,5.81
2023-03-06T15:03:48.379Z,5.60
2023-03-06T15:06:38.225Z,5.49
2023-03-06T15:09:08.528Z,5.59
2023-03-06T15:11:57.820Z,5.68
2023-03-06T15:14:30.128Z,5.58
2023-03-06T15:16:56.508Z,5.51
2023-03-06T15:19:23.019Z,5.48
2023-03-06T15:21:51.083Z,5.44
2023-03-06T15:24:31.488Z,5.46
2023-03-06T15:27:03.450Z,5.51
2023-03-06T15:29:29.863Z,5.40
2023-03-06T15:32:16.330Z,5.30
2023-03-06T15:34:42.792Z,5.12
2023-03-06T15:37:28.588Z,5.29
2023-03-06T15:40:09.080Z,5.40
2023-03-06T15:42:35.683Z,5.49
2023-03-06T15:45:12.632Z,5.42
2023-03-06T15:47:39.025Z,5.33
2023-03-06T15:50:13.603Z,5.31
2023-03-06T15:52:39.981Z,5.23
2023-03-06T15:55:06.532Z,5.04
2023-03-06T15:57:33.478Z,4.96
2023-03-06T15:59:59.909Z,4.89
2023-03-06T16:02:26.283Z,4.79
2023-03-06T16:04:53.178Z,4.74
2023-03-06T16:07:20.547Z,4.65
2023-03-06T16:09:47.339Z,4.60
2023-03-06T16:12:18.136Z,4.62
2023-03-06T16:14:45.488Z,4.48
2023-03-06T16:17:12.263Z,4.47
2023-03-06T16:19:38.700Z,4.39
2023-03-06T16:22:05.049Z,4.30
2023-03-06T16:24:32.315Z,4.20
2023-03-06T16:27:00.428Z,4.18
2023-03-06T16:29:27.506Z,4.13
2023-03-06T16:31:55.103Z,4.09
2023-03-06T16:34:21.739Z,4.07
2023-03-06T16:36:48.578Z,4.02
2023-03-06T16:39:16.509Z,3.86
2023-03-06T16:41:42.935Z,3.81
2023-03-06T16:44:10.146Z,3.75
2023-03-06T16:46:41.637Z,3.69
2023-03-06T16:49:13.566Z,3.54
2023-03-06T16:51:40.398Z,3.51
2023-03-06T16:54:06.808Z,3.48
2023-03-06T16:56:33.168Z,3.48
2023-03-06T16:58:59.549Z,3.34
2023-03-06T17:01:25.984Z,3.19
2023-03-06T17:03:52.380Z,3.12
2023-03-06T17:06:21.870Z,3.11
2023-03-06T17:08:48.970Z,3.02
2023-03-06T17:11:15.512Z,3.01
2023-03-06T17:13:41.886Z,2.99
2023-03-06T17:16:09.419Z,2.92
2023-03-06T17:18:36.005Z,2.97
2023-03-06T17:21:02.428Z,2.87
2023-03-06T17:23:29.579Z,2.75
2023-03-06T17:26:28.418Z,2.68
2023-03-06T17:28:56.037Z,2.57
2023-03-06T17:31:24.418Z,2.51
2023-03-06T17:34:00.536Z,2.60
2023-03-06T17:36:28.258Z,2.60
2023-03-06T17:38:58.598Z,2.50
2023-03-06T17:41:25.026Z,2.49
2023-03-06T17:43:52.327Z,2.40
2023-03-06T17:46:18.845Z,2.30
2023-03-06T17:48:45.376Z,2.16
2023-03-06T17:51:11.771Z,2.16
2023-03-06T17:53:38.498Z,2.12
2023-03-06T17:56:06.371Z,2.17
2023-03-06T17:58:32.953Z,2.15
2023-03-06T18:00:59.413Z,2.19
2023-03-06T18:03:25.828Z,2.11
2023-03-06T18:06:02.287Z,1.93
2023-03-06T18:08:28.854Z,1.86
2023-03-06T18:11:05.456Z,1.85
2023-03-06T18:13:32.653Z,1.84
2023-03-06T18:15:59.420Z,1.90
2023-03-06T18:18:27.296Z,1.87
2023-03-06T18:20:53.701Z,1.89
2023-03-06T18:23:20.147Z,1.85
2023-03-06T18:25:46.518Z,1.82
2023-03-06T18:28:13.344Z,1.69
2023-03-06T18:30:41.233Z,1.56
2023-03-06T18:33:08.022Z,1.44
2023-03-06T18:35:34.711Z,1.39
2023-03-06T18:38:01.098Z,1.31
2023-03-06T18:40:27.466Z,1.31
2023-03-06T18:42:54.077Z,1.27
2023-03-06T18:45:20.565Z,1.20
2023-03-06T18:47:46.920Z,1.14
2023-03-06T18:50:17.312Z,1.12
2023-03-06T18:52:44.102Z,1.13
2023-03-06T18:55:10.595Z,1.25
2023-03-06T18:57:36.963Z,1.33
2023-03-06T19:00:03.890Z,1.33
2023-03-06T19:02:30.596Z,1.37
2023-03-06T19:04:57.456Z,1.41
2023-03-06T19:07:24.591Z,1.44
2023-03-06T19:09:50.950Z,1.45
2023-03-06T19:12:17.614Z,1.38
2023-03-06T19:14:44.272Z,1.44
2023-03-06T19:17:10.657Z,1.44
2023-03-06T19:19:37.032Z,1.39
2023-03-06T19:22:03.424Z,1.28
2023-03-06T19:24:29.811Z,1.21
2023-03-06T19:26:56.193Z,1.21
2023-03-06T19:29:22.538Z,1.22
2023-03-06T19:31:50.703Z,1.20
2023-03-06T19:34:17.196Z,1.24
2023-03-06T19:36:44.447Z,1.30
2023-03-06T19:39:10.852Z,1.28
2023-03-06T19:41:37.233Z,1.20
2023-03-06T19:44:05.687Z,1.17
2023-03-06T19:46:32.199Z,1.07
2023-03-06T19:48:59.944Z,1.06
2023-03-06T19:51:26.692Z,1.00
2023-03-06T19:53:53.100Z,0.94
2023-03-06T19:56:23.625Z,0.90
2023-03-06T19:58:50.024Z,0.88
2023-03-06T20:01:18.348Z,0.84
2023-03-06T20:03:44.819Z,0.80
2023-03-06T20:06:15.863Z,0.77
2023-03-06T20:08:42.811Z,0.78
2023-03-06T20:11:22.269Z,0.78
2023-03-06T20:13:48.720Z,0.76
2023-03-06T20:16:18.574Z,0.72
2023-03-06T20:18:45.454Z,0.68
2023-03-06T20:21:12.967Z,0.62
2023-03-06T20:23:39.425Z,0.62
2023-03-06T20:26:10.183Z,0.60
2023-03-06T20:28:37.470Z,0.58
2023-03-06T20:31:13.382Z,0.61
2023-03-06T20:33:39.916Z,0.61
2023-03-06T20:36:17.501Z,0.66
2023-03-06T20:38:43.912Z,0.65
2023-03-06T20:41:21.045Z,0.62
2023-03-06T20:43:47.524Z,0.58
2023-03-06T20:46:14.095Z,0.60
2023-03-06T20:48:41.136Z,0.61
2023-03-06T20:51:21.277Z,0.61
2023-03-06T20:53:48.914Z,0.63
2023-03-06T20:56:16.468Z,0.61
2023-03-06T20:58:42.881Z,0.58
2023-03-06T21:01:09.298Z,0.57
2023-03-06T21:03:35.674Z,0.56
2023-03-06T21:06:02.036Z,0.60
2023-03-06T21:08:28.427Z,0.57
2023-03-06T21:10:54.987Z,0.51
2023-03-06T21:13:21.392Z,0.52
2023-03-06T21:15:47.814Z,0.46
2023-03-06T21:18:14.322Z,0.50
2023-03-06T21:20:41.043Z,0.51
2023-03-06T21:23:10.771Z,0.54
2023-03-06T21:25:37.126Z,0.56
2023-03-06T21:28:03.610Z,0.60
2023-03-06T21:30:30.222Z,0.71
2023-03-06T21:32:56.604Z,0.80
2023-03-06T21:35:23.001Z,0.94
2023-03-06T21:37:49.418Z,0.99
2023-03-06T21:40:15.988Z,1.03
2023-03-06T21:42:42.367Z,1.07
2023-03-06T21:45:09.173Z,1.15
2023-03-06T21:47:38.699Z,1.19
2023-03-06T21:50:06.429Z,1.24
2023-03-06T21:52:32.811Z,1.26
2023-03-06T21:54:59.158Z,1.21
2023-03-06T21:57:25.524Z,1.22
2023-03-06T21:59:52.194Z,1.22
2023-03-06T22:02:20.287Z,1.24
2023-03-06T22:04:51.056Z,1.23
2023-03-06T22:07:17.430Z,1.24
2023-03-06T22:09:43.824Z,1.29
2023-03-06T22:12:10.168Z,1.30
2023-03-06T22:14:36.624Z,1.30
2023-03-06T22:17:03.056Z,1.36
2023-03-06T22:19:29.782Z,1.38
2023-03-06T22:21:56.244Z,1.38
2023-03-06T22:24:22.681Z,1.43
2023-03-06T22:26:49.032Z,1.48
2023-03-06T22:29:15.399Z,1.50
2023-03-06T22:31:41.789Z,1.47
2023-03-06T22:34:08.164Z,1.51
2023-03-06T22:36:34.574Z,1.55
2023-03-06T22:39:01.599Z,1.53
2023-03-06T22:41:28.032Z,1.55
2023-03-06T22:43:58.560Z,1.56
2023-03-06T22:46:25.027Z,1.58
2023-03-06T22:48:51.457Z,1.64
2023-03-06T22:51:19.511Z,1.68
2023-03-06T22:53:46.395Z,1.70
2023-03-06T22:56:14.831Z,1.69
2023-03-06T22:58:41.280Z,1.73
2023-03-06T23:01:08.406Z,1.77
2023-03-06T23:03:36.160Z,1.82
2023-03-06T23:06:06.309Z,1.81
2023-03-06T23:08:32.649Z,1.85
2023-03-06T23:10:59.003Z,1.90
2023-03-06T23:13:25.383Z,1.92
2023-03-06T23:15:51.784Z,1.94
2023-03-06T23:18:18.179Z,1.94
2023-03-06T23:20:44.815Z,1.94
2023-03-06T23:23:11.279Z,2.02
2023-03-06T23:25:37.621Z,2.06
2023-03-06T23:28:04.033Z,2.11
2023-03-06T23:30:30.466Z,2.14
2023-03-06T23:32:56.983Z,2.15
2023-03-06T23:35:23.554Z,2.17
2023-03-06T23:37:50.225Z,2.17
2023-03-06T23:40:16.755Z,2.20
2023-03-06T23:42:43.314Z,2.22
2023-03-06T23:45:10.326Z,2.25
2023-03-06T23:47:36.683Z,2.30
2023-03-06T23:50:03.553Z,2.33
2023-03-06T23:52:29.912Z,2.36
2023-03-06T23:54:56.277Z,2.36
2023-03-06T23:57:22.659Z,2.41
2023-03-06T23:59:49.028Z,2.48
